Time;durP1;ratioP1;P1;durP2;ratioP2;P2;SDS_P1;SDS_P2;PMS_P1;PMS_P2;Temp;Humidity;BMP_temperature;BMP_pressure;BME280_temperature;BME280_humidity;BME280_pressure;Samples;Min_cycle;Max_cycle;Signal;HPM_P1;HPM_P2
2022/03/10 00:00:33;;;;;;;17.52;11.03;;;;;;;-3.22;65.52;101357.59;1824752;78;21248;-72
2022/03/10 00:03:00;;;;;;;18.35;11.90;;;;;;;-3.31;65.75;101353.25;1825148;78;20926;-73
2022/03/10 00:05:27;;;;;;;17.62;11.88;;;;;;;-3.40;65.65;101354.42;1824875;78;20883;-72
2022/03/10 00:07:54;;;;;;;17.85;11.33;;;;;;;-3.46;66.04;101353.95;1824990;77;20976;-72
2022/03/10 00:10:22;;;;;;;18.10;11.60;;;;;;;-3.46;66.40;101347.97;1824743;77;20978;-72
2022/03/10 00:12:52;;;;;;;16.90;10.95;;;;;;;-3.55;67.06;101350.88;1824770;78;22157;-73
2022/03/10 00:15:23;;;;;;;18.12;11.75;;;;;;;-3.58;67.15;101348.30;1824658;77;20868;-73
2022/03/10 00:17:51;;;;;;;22.73;12.82;;;;;;;-3.60;67.71;101353.83;1824812;78;20952;-74
2022/03/10 00:20:21;;;;;;;20.52;11.18;;;;;;;-3.64;67.78;101348.66;1824733;78;20883;-73
2022/03/10 00:22:52;;;;;;;19.95;11.97;;;;;;;-3.66;67.85;101351.20;1824859;78;20902;-72
2022/03/10 00:25:19;;;;;;;18.98;10.58;;;;;;;-3.63;67.99;101349.94;1824862;78;22219;-72
2022/03/10 00:27:46;;;;;;;22.02;12.98;;;;;;;-3.65;68.05;101348.20;1824733;78;20963;-73
2022/03/10 00:30:13;;;;;;;15.43;10.23;;;;;;;-3.69;68.12;101356.70;1824713;78;21396;-73
2022/03/10 00:32:45;;;;;;;17.57;11.10;;;;;;;-3.73;68.41;101353.66;1824661;77;20895;-72
2022/03/10 00:35:15;;;;;;;18.07;12.13;;;;;;;-3.78;68.57;101351.05;1824848;78;21551;-72
2022/03/10 00:37:45;;;;;;;16.90;10.85;;;;;;;-3.80;68.79;101353.62;1824868;78;21864;-72
2022/03/10 00:40:12;;;;;;;19.82;12.05;;;;;;;-3.80;68.74;101350.17;1824650;77;21301;-73
2022/03/10 00:42:39;;;;;;;18.12;11.93;;;;;;;-3.83;68.69;101356.13;1824722;77;21361;-72
2022/03/10 00:45:07;;;;;;;19.48;13.00;;;;;;;-3.84;69.06;101351.86;1824757;77;21472;-72
2022/03/10 00:47:34;;;;;;;16.42;11.20;;;;;;;-3.86;68.86;101356.54;1824843;78;20931;-72
2022/03/10 00:50:02;;;;;;;21.37;11.40;;;;;;;-3.92;69.05;101354.75;1824718;77;22069;-73
2022/03/10 00:52:29;;;;;;;19.98;12.78;;;;;;;-3.95;69.00;101359.86;1824945;78;20871;-72
2022/03/10 00:54:56;;;;;;;15.88;10.58;;;;;;;-3.98;69.15;101361.97;1824882;78;20974;-73
2022/03/10 00:57:24;;;;;;;17.50;12.50;;;;;;;-3.95;69.17;101364.98;1824980;77;20935;-72
2022/03/10 00:59:51;;;;;;;14.75;10.98;;;;;;;-3.93;69.12;101358.60;1797562;78;20879;-73
2022/03/10 01:02:18;;;;;;;15.80;11.55;;;;;;;-3.91;69.15;101353.05;1824872;78;21529;-74
2022/03/10 01:04:45;;;;;;;16.30;12.35;;;;;;;-3.91;69.08;101360.34;1825239;77;20966;-72
2022/03/10 01:07:13;;;;;;;17.67;11.68;;;;;;;-3.89;68.96;101360.33;1824848;78;20868;-72
2022/03/10 01:09:40;;;;;;;14.63;10.65;;;;;;;-3.88;68.87;101361.64;1824795;77;20982;-72
2022/03/10 01:12:07;;;;;;;14.53;9.80;;;;;;;-3.92;68.71;101362.44;1825006;77;21009;-73
2022/03/10 01:14:34;;;;;;;15.83;9.63;;;;;;;-3.94;68.62;101370.95;1824929;77;21265;-73
2022/03/10 01:17:02;;;;;;;14.80;9.80;;;;;;;-3.99;68.39;101370.47;1824821;78;20848;-73
2022/03/10 01:19:31;;;;;;;15.70;9.55;;;;;;;-4.09;68.53;101357.14;1824996;78;20899;-73
2022/03/10 01:21:58;;;;;;;16.00;9.58;;;;;;;-4.18;68.66;101365.56;1824997;77;20923;-72
2022/03/10 01:24:25;;;;;;;13.18;9.68;;;;;;;-4.24;68.80;101371.89;1825065;77;20962;-74
2022/03/10 01:26:52;;;;;;;17.25;9.18;;;;;;;-4.24;68.75;101371.89;1825011;77;21500;-73
2022/03/10 01:29:19;;;;;;;15.40;9.40;;;;;;;-4.25;68.86;101371.42;1824998;77;20872;-72
2022/03/10 01:31:47;;;;;;;13.20;9.18;;;;;;;-4.20;68.96;101371.09;1823127;78;20868;-71
2022/03/10 01:34:14;;;;;;;13.88;9.70;;;;;;;-4.18;68.57;101361.73;1821459;78;21021;-71
2022/03/10 01:36:41;;;;;;;13.98;9.33;;;;;;;-4.24;68.72;101364.20;1821433;78;20975;-73
2022/03/10 01:39:08;;;;;;;13.88;8.68;;;;;;;-4.34;68.53;101371.31;1821439;78;21237;-72
2022/03/10 01:41:35;;;;;;;12.00;8.75;;;;;;;-4.35;68.72;101380.27;1821738;78;20927;-72
2022/03/10 01:44:08;;;;;;;10.70;7.83;;;;;;;-4.33;68.70;101378.17;1821653;78;20892;-72
2022/03/10 01:46:36;;;;;;;10.08;7.00;;;;;;;-4.27;68.33;101375.70;1821594;78;20963;-73
2022/03/10 01:49:05;;;;;;;12.53;7.65;;;;;;;-4.23;67.33;101388.95;1821392;78;20923;-72
2022/03/10 01:51:33;;;;;;;11.08;6.80;;;;;;;-4.27;66.33;101392.73;1821393;78;21898;-73
2022/03/10 01:54:00;;;;;;;12.03;8.03;;;;;;;-4.33;65.86;101384.57;1821344;78;20923;-72
2022/03/10 01:56:27;;;;;;;9.50;5.30;;;;;;;-4.36;65.21;101393.47;1821479;78;20915;-73
2022/03/10 01:58:55;;;;;;;9.20;5.65;;;;;;;-4.41;64.96;101392.13;1821469;78;20982;-71
2022/03/10 02:01:22;;;;;;;8.75;5.62;;;;;;;-4.43;64.64;101387.83;1821463;78;20891;-72
2022/03/10 02:03:50;;;;;;;9.43;6.12;;;;;;;-4.48;64.30;101392.89;1790159;78;21490;-72
2022/03/10 02:06:17;;;;;;;9.80;6.25;;;;;;;-4.60;64.48;101393.58;1821588;78;21014;-72
2022/03/10 02:11:30;;;;;;;8.53;5.72;;;;;;;-4.62;64.36;101402.94;1821452;78;20868;-72
2022/03/10 02:13:57;;;;;;;8.00;5.65;;;;;;;-4.66;64.28;101398.60;1816537;78;20891;-73
2022/03/10 02:19:10;;;;;;;10.18;6.30;;;;;;;-4.65;64.38;101399.03;1821488;78;20844;-72
2022/03/10 02:21:38;;;;;;;12.65;6.78;;;;;;;-4.60;64.31;101392.30;1821465;78;20911;-72
2022/03/10 02:24:06;;;;;;;11.90;6.15;;;;;;;-4.55;64.49;101394.08;1821493;78;21414;-73
2022/03/10 02:26:34;;;;;;;9.25;5.62;;;;;;;-4.52;64.26;101396.23;1821485;78;20994;-74
2022/03/10 02:29:01;;;;;;;8.70;5.65;;;;;;;-4.50;63.92;101389.87;1821584;78;21217;-72
2022/03/10 02:31:28;;;;;;;11.03;6.00;;;;;;;-4.55;63.23;101397.91;1821262;78;20919;-72
2022/03/10 02:33:56;;;;;;;7.85;5.90;;;;;;;-4.63;63.15;101405.03;1821499;78;20944;-71
2022/03/10 02:36:25;;;;;;;8.23;5.30;;;;;;;-4.68;62.58;101409.66;1821528;78;20958;-71
2022/03/10 02:38:51;;;;;;;6.75;4.50;;;;;;;-4.74;62.56;101405.30;1821546;78;21373;-72
2022/03/10 02:41:19;;;;;;;8.80;6.08;;;;;;;-4.79;62.29;101416.73;1821828;78;21077;-73
2022/03/10 02:43:45;;;;;;;10.13;5.30;;;;;;;-4.88;62.34;101409.34;1821372;78;20970;-73
2022/03/10 02:46:12;;;;;;;9.18;5.75;;;;;;;-4.90;62.52;101415.70;1821408;78;20923;-73
2022/03/10 02:48:39;;;;;;;7.30;5.72;;;;;;;-4.87;62.61;101417.05;1821401;78;20887;-72
2022/03/10 02:51:07;;;;;;;7.35;5.25;;;;;;;-4.89;62.62;101417.45;1821449;78;21401;-73
2022/03/10 02:53:34;;;;;;;8.90;6.75;;;;;;;-4.90;63.02;101411.88;1821443;78;21707;-73
2022/03/10 02:56:02;;;;;;;10.80;6.67;;;;;;;-4.88;63.14;101414.04;1821381;78;20916;-73
2022/03/10 02:58:29;;;;;;;10.90;6.78;;;;;;;-4.80;63.27;101419.30;1821329;78;20872;-73
2022/03/10 03:00:56;;;;;;;8.58;5.47;;;;;;;-4.80;63.54;101422.70;1821443;78;21018;-72
2022/03/10 03:03:23;;;;;;;10.75;6.58;;;;;;;-4.76;63.85;101421.46;1821320;78;20915;-73
2022/03/10 03:05:50;;;;;;;10.00;7.83;;;;;;;-4.73;64.50;101426.65;1821340;78;21814;-73
2022/03/10 03:08:18;;;;;;;8.88;6.35;;;;;;;-4.82;64.65;101419.69;1816301;78;20884;-73
2022/03/10 03:10:46;;;;;;;7.17;5.20;;;;;;;-4.93;64.64;101432.30;1821321;78;20915;-73
2022/03/10 03:13:13;;;;;;;11.40;6.10;;;;;;;-5.01;64.58;101433.43;1821237;78;20983;-73
2022/03/10 03:15:40;;;;;;;10.00;6.85;;;;;;;-5.13;64.79;101442.19;1821462;78;20916;-72
2022/03/10 03:18:08;;;;;;;8.63;5.42;;;;;;;-5.24;64.59;101437.30;1821463;78;21085;-74
2022/03/10 03:20:35;;;;;;;7.90;5.97;;;;;;;-5.31;64.83;101436.33;1821608;78;20931;-73
2022/03/10 03:23:02;;;;;;;8.10;5.80;;;;;;;-5.38;65.04;101449.84;1821339;78;20883;-73
2022/03/10 03:25:29;;;;;;;9.60;6.53;;;;;;;-5.42;64.93;101452.74;1821380;78;20935;-73
2022/03/10 03:27:56;;;;;;;8.38;5.92;;;;;;;-5.46;65.19;101457.77;1821615;78;21041;-72
2022/03/10 03:30:23;;;;;;;9.23;5.97;;;;;;;-5.52;65.14;101458.92;1821389;78;21368;-71
2022/03/10 03:32:50;;;;;;;9.45;6.28;;;;;;;-5.58;65.26;101457.52;1822872;78;20868;-72
2022/03/10 03:35:17;;;;;;;12.20;6.20;;;;;;;-5.64;65.47;101454.44;1824927;78;20944;-72
2022/03/10 03:37:45;;;;;;;10.90;6.22;;;;;;;-5.72;65.64;101466.19;1824847;78;20939;-72
2022/03/10 03:40:13;;;;;;;15.20;6.87;;;;;;;-5.84;65.72;101462.98;1824775;78;20852;-73
2022/03/10 03:42:40;;;;;;;11.48;5.92;;;;;;;-5.91;65.84;101466.23;1824867;78;21536;-73
2022/03/10 03:45:08;;;;;;;13.88;7.22;;;;;;;-5.98;65.64;101475.88;1825219;78;20998;-71
2022/03/10 03:47:36;;;;;;;12.37;5.85;;;;;;;-6.03;65.60;101469.83;1824867;78;20997;-72
2022/03/10 03:50:04;;;;;;;9.03;6.47;;;;;;;-6.09;65.85;101478.20;1824833;78;21309;-72
2022/03/10 03:52:32;;;;;;;10.82;6.87;;;;;;;-6.11;65.64;101470.53;1824800;78;20927;-73
2022/03/10 03:54:59;;;;;;;8.58;5.37;;;;;;;-6.16;65.87;101470.81;1824754;78;22112;-73
2022/03/10 03:57:26;;;;;;;8.15;5.78;;;;;;;-6.23;65.84;101474.49;1825057;78;20872;-72
2022/03/10 03:59:53;;;;;;;12.10;6.80;;;;;;;-6.30;65.78;101482.00;1824848;78;20919;-72
2022/03/10 04:02:20;;;;;;;10.98;6.87;;;;;;;-6.38;65.69;101488.64;1824856;78;20938;-73
2022/03/10 04:04:48;;;;;;;8.88;5.50;;;;;;;-6.43;65.83;101488.07;1825306;78;20868;-74
2022/03/10 04:07:15;;;;;;;9.13;5.30;;;;;;;-6.50;65.96;101486.64;1824859;78;21146;-73
2022/03/10 04:09:43;;;;;;;8.15;6.08;;;;;;;-6.55;65.84;101486.95;1824801;78;21464;-72
2022/03/10 04:12:10;;;;;;;6.60;5.05;;;;;;;-6.58;65.81;101493.66;1825003;78;20871;-72
2022/03/10 04:14:38;;;;;;;8.38;5.65;;;;;;;-6.63;65.59;101492.27;1824921;78;20966;-72
2022/03/10 04:17:04;;;;;;;10.63;5.42;;;;;;;-6.68;65.60;101487.06;1824760;78;20883;-73
2022/03/10 04:19:32;;;;;;;8.38;4.97;;;;;;;-6.74;65.46;101493.70;1824849;78;20983;-72
2022/03/10 04:22:00;;;;;;;8.43;5.72;;;;;;;-6.83;65.35;101489.66;1824936;78;21399;-74
2022/03/10 04:24:27;;;;;;;9.45;6.28;;;;;;;-6.92;65.44;101496.66;1824738;78;20955;-73
2022/03/10 04:26:54;;;;;;;9.30;4.85;;;;;;;-6.90;65.57;101500.97;1824673;78;21010;-72
2022/03/10 04:29:21;;;;;;;8.55;5.40;;;;;;;-6.87;65.48;101504.00;1824858;78;20966;-73
2022/03/10 04:31:48;;;;;;;7.30;5.03;;;;;;;-6.85;65.25;101506.59;1824789;78;21785;-72
2022/03/10 04:34:16;;;;;;;8.90;4.70;;;;;;;-6.89;65.29;101510.77;1821442;78;21484;-73
2022/03/10 04:36:43;;;;;;;6.62;4.87;;;;;;;-6.86;65.27;101512.53;1821261;78;20868;-73
2022/03/10 04:39:10;;;;;;;7.35;4.97;;;;;;;-6.83;65.08;101499.44;1821622;78;20934;-73
2022/03/10 04:41:37;;;;;;;8.43;5.15;;;;;;;-6.83;65.02;101512.60;1821286;78;20919;-73
2022/03/10 04:44:05;;;;;;;9.43;6.03;;;;;;;-6.82;65.01;101513.92;1821336;78;21203;-73
2022/03/10 04:47:21;;;;;;;8.03;5.90;;;;;;;-6.78;64.95;101510.63;1854477;76;22578;-73
2022/03/10 04:49:48;;;;;;;6.72;5.33;;;;;;;-6.80;64.61;101515.22;1822129;78;21017;-73
2022/03/10 04:52:15;;;;;;;9.85;5.75;;;;;;;-6.81;64.36;101518.19;1822151;78;21513;-73
2022/03/10 04:54:42;;;;;;;8.95;4.83;;;;;;;-6.82;64.26;101521.58;1822078;78;20872;-71
2022/03/10 04:57:10;;;;;;;7.37;4.65;;;;;;;-6.83;63.74;101524.94;1822138;78;20923;-72
2022/03/10 04:59:37;;;;;;;10.38;5.97;;;;;;;-6.80;64.07;101528.86;1822299;78;20887;-73
2022/03/10 05:02:04;;;;;;;7.62;4.53;;;;;;;-6.49;63.68;101533.42;1822228;78;20918;-72
2022/03/10 05:04:31;;;;;;;10.23;5.42;;;;;;;-6.07;63.15;101541.26;1822051;78;21722;-73
2022/03/10 05:07:00;;;;;;;6.50;4.62;;;;;;;-5.55;62.28;101532.55;1821944;78;20919;-72
2022/03/10 05:09:28;;;;;;;7.03;5.45;;;;;;;-5.05;61.06;101540.33;1822074;78;20963;-73
2022/03/10 05:11:55;;;;;;;8.33;5.33;;;;;;;-4.62;59.30;101531.31;1821956;78;20891;-75
2022/03/10 05:14:22;;;;;;;9.28;5.53;;;;;;;-4.33;56.77;101533.49;1822077;78;21447;-73
2022/03/10 05:16:51;;;;;;;7.55;4.47;;;;;;;-4.37;56.18;101535.98;1822012;78;21832;-73
2022/03/10 05:19:18;;;;;;;7.33;4.70;;;;;;;-4.38;55.48;101543.62;1822015;78;20986;-73
2022/03/10 05:21:46;;;;;;;9.25;5.45;;;;;;;-4.40;55.71;101547.89;1822017;78;20901;-73
2022/03/10 05:24:13;;;;;;;6.60;4.22;;;;;;;-4.14;55.72;101548.28;1821989;78;21310;-72
2022/03/10 05:26:41;;;;;;;8.15;5.35;;;;;;;-3.91;54.54;101545.19;1822237;78;21302;-72
2022/03/10 05:29:08;;;;;;;9.03;5.12;;;;;;;-3.88;53.89;101555.08;1822226;78;21304;-73
2022/03/10 05:31:35;;;;;;;6.75;4.78;;;;;;;-3.84;52.98;101547.88;1822006;78;20895;-72
2022/03/10 05:34:03;;;;;;;7.33;5.00;;;;;;;-3.88;52.74;101549.95;1822101;78;21460;-75
2022/03/10 05:36:30;;;;;;;7.25;5.35;;;;;;;-3.79;52.62;101545.37;1822268;78;20892;-74
2022/03/10 05:38:56;;;;;;;10.03;5.67;;;;;;;-3.85;52.59;101552.55;1821997;78;21342;-72
2022/03/10 05:41:23;;;;;;;7.17;5.00;;;;;;;-3.84;52.64;101555.56;1822002;78;21361;-72
2022/03/10 05:43:51;;;;;;;6.78;4.58;;;;;;;-3.85;51.94;101555.11;1822034;78;20896;-73
2022/03/10 05:46:18;;;;;;;6.75;4.25;;;;;;;-3.75;52.11;101556.13;1822045;78;21516;-74
2022/03/10 05:48:45;;;;;;;9.05;5.12;;;;;;;-3.53;52.17;101553.42;1822087;78;21325;-73
2022/03/10 05:51:12;;;;;;;6.45;4.33;;;;;;;-3.25;51.54;101552.47;1822110;78;20978;-73
2022/03/10 05:53:40;;;;;;;6.80;4.47;;;;;;;-3.08;50.67;101545.84;1821977;78;21804;-73
2022/03/10 05:56:07;;;;;;;5.67;5.10;;;;;;;-2.93;50.68;101549.00;1821917;78;20833;-73
2022/03/10 05:58:34;;;;;;;7.72;4.87;;;;;;;-2.43;50.46;101557.59;1821789;78;20893;-73
2022/03/10 06:01:01;;;;;;;8.40;4.25;;;;;;;-1.87;48.44;101546.00;1821461;78;20895;-74
2022/03/10 06:03:30;;;;;;;7.28;3.90;;;;;;;-1.53;46.90;101556.06;1821447;78;20974;-73
2022/03/10 06:05:57;;;;;;;5.65;4.28;;;;;;;-1.43;45.89;101560.81;1821463;78;21468;-74
2022/03/10 06:08:25;;;;;;;8.73;5.37;;;;;;;-1.38;45.54;101561.72;1821368;78;20879;-73
2022/03/10 06:10:52;;;;;;;4.55;3.67;;;;;;;-1.06;46.08;101560.97;1821413;78;21420;-73
2022/03/10 06:13:19;;;;;;;8.08;4.95;;;;;;;-0.83;45.09;101558.44;1821383;78;20994;-73
2022/03/10 06:15:46;;;;;;;6.80;4.08;;;;;;;-0.91;43.74;101548.14;1821613;78;20915;-73
2022/03/10 06:18:13;;;;;;;6.15;4.40;;;;;;;-1.36;44.07;101558.69;1821458;78;21761;-73
2022/03/10 06:20:41;;;;;;;7.08;4.37;;;;;;;-1.69;44.10;101556.41;1821467;78;20884;-74
2022/03/10 06:23:09;;;;;;;4.72;4.20;;;;;;;-1.59;44.86;101568.03;1821708;78;21009;-73
2022/03/10 06:25:36;;;;;;;5.87;3.83;;;;;;;-1.33;45.34;101570.30;1821298;78;20950;-73
2022/03/10 06:28:04;;;;;;;8.53;4.08;;;;;;;-1.15;44.22;101562.23;1821552;78;20880;-75
2022/03/10 06:30:32;;;;;;;7.58;3.98;;;;;;;-1.26;44.55;101565.61;1821526;78;21150;-74
2022/03/10 06:32:59;;;;;;;4.75;4.10;;;;;;;-1.14;44.46;101561.36;1821683;78;20966;-74
2022/03/10 06:35:26;;;;;;;7.50;4.80;;;;;;;-1.13;43.86;101572.95;1821509;78;20852;-72
2022/03/10 06:37:53;;;;;;;6.95;4.25;;;;;;;-1.13;44.13;101558.80;1821471;78;20997;-75
2022/03/10 06:40:20;;;;;;;6.95;3.98;;;;;;;-1.06;43.54;101567.41;1821394;78;21064;-73
2022/03/10 06:42:48;;;;;;;5.05;3.85;;;;;;;-0.95;42.82;101564.86;1821492;78;21405;-73
2022/03/10 06:45:15;;;;;;;5.40;3.98;;;;;;;-1.08;42.77;101569.11;1821398;78;20875;-75
2022/03/10 06:47:42;;;;;;;6.75;4.40;;;;;;;-1.07;42.94;101566.55;1824379;78;20939;-73
2022/03/10 06:50:09;;;;;;;5.67;4.15;;;;;;;-1.14;42.84;101565.22;1824948;78;21444;-74
2022/03/10 06:52:36;;;;;;;6.87;5.33;;;;;;;-1.19;43.37;101571.64;1825202;78;21404;-72
2022/03/10 06:55:06;;;;;;;5.85;4.05;;;;;;;-0.98;43.58;101571.27;1824931;78;21145;-74
2022/03/10 06:57:34;;;;;;;6.25;4.03;;;;;;;-0.84;42.80;101570.47;1824823;78;20857;-74
2022/03/10 07:00:01;;;;;;;8.15;4.35;;;;;;;-0.72;42.16;101561.89;1825228;78;20915;-75
2022/03/10 07:02:30;;;;;;;5.35;3.60;;;;;;;-0.72;42.22;101558.47;1825087;78;20931;-74
2022/03/10 07:04:58;;;;;;;6.40;4.03;;;;;;;-0.58;42.06;101557.19;1824854;78;20935;-74
2022/03/10 07:07:25;;;;;;;4.05;3.17;;;;;;;-0.41;42.15;101568.38;1825066;78;21100;-74
2022/03/10 07:09:52;;;;;;;5.65;3.62;;;;;;;-0.49;41.80;101567.09;1824750;78;20880;-74
2022/03/10 07:12:20;;;;;;;6.65;4.55;;;;;;;-0.45;42.38;101566.66;1824864;77;20931;-72
2022/03/10 07:14:47;;;;;;;6.25;4.50;;;;;;;-0.40;42.30;101566.66;1825057;77;20946;-73
2022/03/10 07:17:15;;;;;;;9.85;4.08;;;;;;;-0.32;41.68;101570.10;1825094;78;20883;-75
2022/03/10 07:19:42;;;;;;;4.58;3.58;;;;;;;-0.52;41.38;101565.78;1824812;78;21806;-74
2022/03/10 07:22:09;;;;;;;7.22;4.45;;;;;;;-0.74;41.79;101563.61;1824714;78;21456;-75
2022/03/10 07:24:37;;;;;;;8.25;4.37;;;;;;;-0.72;43.35;101561.05;1824937;77;20867;-75
2022/03/10 07:27:05;;;;;;;6.83;3.72;;;;;;;-0.53;42.55;101563.23;1824744;78;20891;-74
2022/03/10 07:29:33;;;;;;;5.85;4.10;;;;;;;-0.36;41.97;101552.91;1824843;77;20879;-75
2022/03/10 07:32:01;;;;;;;5.97;3.83;;;;;;;-0.67;41.83;101558.03;1824836;77;21364;-75
2022/03/10 07:34:29;;;;;;;5.12;3.72;;;;;;;-0.94;42.05;101562.27;1824805;77;20959;-75
2022/03/10 07:36:56;;;;;;;6.72;4.17;;;;;;;-1.14;42.75;101545.92;1824787;78;20875;-73
2022/03/10 07:39:23;;;;;;;4.80;4.03;;;;;;;-1.25;42.95;101559.59;1824714;77;21040;-77
2022/03/10 07:41:50;;;;;;;7.78;5.20;;;;;;;-0.96;43.34;101560.13;1825216;78;21364;-74
2022/03/10 07:44:17;;;;;;;9.10;4.67;;;;;;;-0.61;42.89;101557.20;1825093;78;21835;-75
2022/03/10 07:46:45;;;;;;;5.72;4.05;;;;;;;-0.37;41.38;101552.06;1824586;77;21349;-75
2022/03/10 07:49:12;;;;;;;5.80;4.10;;;;;;;-0.48;41.48;101553.34;1824753;78;21423;-76
2022/03/10 07:51:42;;;;;;;6.75;4.30;;;;;;;-0.53;41.51;101546.48;1824854;78;20852;-75
2022/03/10 07:54:10;;;;;;;4.87;3.90;;;;;;;-0.39;41.66;101534.89;1825010;78;20974;-75
2022/03/10 07:56:38;;;;;;;6.70;4.40;;;;;;;-0.25;41.16;101551.20;1824814;78;21237;-76
2022/03/10 07:59:05;;;;;;;5.85;3.72;;;;;;;0.04;40.61;101545.16;1824777;78;20876;-75
2022/03/10 08:01:32;;;;;;;5.33;3.75;;;;;;;0.50;41.18;101547.62;1824789;78;20915;-75
2022/03/10 08:03:59;;;;;;;8.18;4.50;;;;;;;1.20;40.57;101545.11;1824843;78;20919;-75
2022/03/10 08:06:27;;;;;;;9.25;4.87;;;;;;;1.81;38.59;101547.69;1824779;78;20872;-75
2022/03/10 08:08:55;;;;;;;5.50;4.05;;;;;;;2.33;38.20;101547.61;1824718;78;21095;-75
2022/03/10 08:11:22;;;;;;;5.22;4.12;;;;;;;2.31;36.27;101547.61;1824792;78;20891;-74
2022/03/10 08:13:49;;;;;;;7.03;4.10;;;;;;;2.06;36.49;101543.14;1824859;78;20916;-74
2022/03/10 08:16:17;;;;;;;7.15;4.20;;;;;;;2.02;37.34;101538.45;1824770;78;20951;-74
2022/03/10 08:18:47;;;;;;;4.10;3.58;;;;;;;1.78;37.12;101533.06;1824795;78;20836;-73
2022/03/10 08:21:15;;;;;;;6.28;4.78;;;;;;;1.52;37.42;101539.73;1824758;78;21100;-76
2022/03/10 08:23:43;;;;;;;7.60;4.10;;;;;;;1.22;37.96;101543.38;1824733;78;20880;-75
2022/03/10 08:26:10;;;;;;;6.58;4.25;;;;;;;1.36;38.23;101546.75;1824718;78;20970;-75
2022/03/10 08:28:38;;;;;;;3.83;3.47;;;;;;;1.49;38.33;101550.52;1824744;78;20907;-75
2022/03/10 08:31:07;;;;;;;5.50;3.90;;;;;;;1.51;37.70;101538.45;1824955;78;20916;-75
2022/03/10 08:33:35;;;;;;;7.40;4.37;;;;;;;1.72;38.28;101552.95;1824764;78;21888;-75
2022/03/10 08:36:06;;;;;;;8.30;4.97;;;;;;;2.22;37.36;101551.59;1824671;78;20931;-75
2022/03/10 08:38:35;;;;;;;7.80;4.30;;;;;;;2.62;37.31;101552.45;1824839;78;20829;-76
2022/03/10 08:41:04;;;;;;;7.08;4.42;;;;;;;2.86;36.13;101548.25;1824849;78;20915;-75
2022/03/10 08:43:33;;;;;;;5.97;4.33;;;;;;;2.84;35.86;101550.45;1824839;78;21424;-75
2022/03/10 08:46:05;;;;;;;6.65;4.47;;;;;;;2.97;35.38;101539.05;1824797;78;21176;-75
2022/03/10 08:48:32;;;;;;;4.72;4.00;;;;;;;2.80;35.48;101535.81;1823992;78;20974;-76
2022/03/10 08:51:00;;;;;;;7.20;4.35;;;;;;;2.56;35.75;101551.25;1824759;78;20942;-75
2022/03/10 08:53:27;;;;;;;7.15;4.58;;;;;;;1.87;36.64;101546.35;1824683;78;20864;-75
2022/03/10 08:55:56;;;;;;;5.90;4.47;;;;;;;1.74;37.58;101550.77;1824785;78;21291;-75
2022/03/10 08:58:24;;;;;;;5.75;4.00;;;;;;;1.95;38.08;101552.73;1825150;78;21142;-75
2022/03/10 09:00:51;;;;;;;7.10;4.62;;;;;;;1.81;36.78;101543.81;1824740;78;20860;-74
2022/03/10 09:03:20;;;;;;;5.53;4.35;;;;;;;1.69;37.37;101543.48;1824805;78;20996;-75
2022/03/10 09:05:47;;;;;;;8.38;5.00;;;;;;;1.88;38.43;101537.70;1824746;78;21372;-76
2022/03/10 09:08:14;;;;;;;7.30;4.20;;;;;;;2.20;37.76;101541.70;1824745;78;21370;-75
2022/03/10 09:10:43;;;;;;;8.40;4.83;;;;;;;2.25;36.59;101531.73;1824777;78;20970;-75
2022/03/10 09:13:11;;;;;;;6.62;4.35;;;;;;;2.22;36.71;101527.02;1824672;78;20883;-74
2022/03/10 09:15:38;;;;;;;7.15;4.33;;;;;;;2.37;36.68;101539.79;1824735;78;20954;-75
2022/03/10 09:18:07;;;;;;;5.60;4.30;;;;;;;2.53;36.33;101528.81;1824720;78;20899;-73
2022/03/10 09:20:37;;;;;;;7.95;4.75;;;;;;;2.77;36.81;101541.05;1824799;78;20852;-74
2022/03/10 09:23:05;;;;;;;7.97;4.83;;;;;;;2.98;36.08;101526.94;1824821;78;21135;-75
2022/03/10 09:25:32;;;;;;;6.95;4.03;;;;;;;3.32;36.27;101537.25;1824646;78;20892;-75
2022/03/10 09:27:59;;;;;;;5.62;4.22;;;;;;;3.52;35.96;101524.42;1824700;78;20978;-74
2022/03/10 09:30:26;;;;;;;5.05;3.98;;;;;;;3.14;36.02;101532.79;1824695;78;21310;-74
2022/03/10 09:32:54;;;;;;;5.33;4.33;;;;;;;3.08;36.24;101533.72;1824805;78;21380;-75
2022/03/10 09:35:22;;;;;;;6.30;4.20;;;;;;;2.56;35.95;101531.38;1824414;78;21001;-75
2022/03/10 09:37:52;;;;;;;6.45;4.42;;;;;;;2.20;37.02;101538.70;1824914;78;21488;-75
2022/03/10 09:40:20;;;;;;;6.37;4.30;;;;;;;2.12;37.70;101537.06;1824962;78;21420;-74
2022/03/10 09:42:49;;;;;;;5.53;4.15;;;;;;;2.03;37.90;101544.47;1824837;78;20931;-74
2022/03/10 09:45:18;;;;;;;6.12;4.55;;;;;;;1.82;38.23;101525.70;1825076;78;20914;-74
2022/03/10 09:47:46;;;;;;;4.87;3.92;;;;;;;1.56;38.49;101516.88;1824794;78;21966;-74
2022/03/10 09:50:17;;;;;;;8.78;4.10;;;;;;;1.15;38.82;101527.50;1824834;78;20907;-74
2022/03/10 09:52:45;;;;;;;5.92;4.45;;;;;;;0.73;39.65;101529.02;1824918;78;21570;-75
2022/03/10 09:55:16;;;;;;;5.30;3.85;;;;;;;0.72;41.03;101525.17;1824945;78;20899;-73
2022/03/10 09:57:44;;;;;;;6.35;4.05;;;;;;;0.77;39.85;101515.23;1824885;78;20872;-74
2022/03/10 10:00:14;;;;;;;5.87;4.17;;;;;;;0.77;40.38;101520.84;1824857;78;21790;-75
2022/03/10 10:02:42;;;;;;;8.25;4.60;;;;;;;0.75;40.02;101518.69;1825106;78;20934;-74
2022/03/10 10:05:32;;;;;;;6.95;4.08;;;;;;;0.61;40.84;101520.91;1824914;78;20954;-74
2022/03/10 10:08:17;;;;;;;4.90;3.58;;;;;;;0.60;40.87;101514.45;1825254;78;20885;-74
2022/03/10 10:10:50;;;;;;;5.62;4.55;;;;;;;0.54;40.81;101519.66;1825001;78;20880;-73
2022/03/10 10:13:43;;;;;;;5.35;3.60;;;;;;;0.26;42.07;101526.19;1824829;78;21141;-73
2022/03/10 10:16:13;;;;;;;8.45;4.08;;;;;;;-0.01;42.17;101520.23;1824773;78;21433;-74
2022/03/10 10:18:42;;;;;;;6.37;3.77;;;;;;;-0.34;42.12;101512.55;1824930;78;20864;-74
2022/03/10 10:21:12;;;;;;;7.17;3.75;;;;;;;-0.76;43.05;101518.96;1825031;78;20974;-74
2022/03/10 10:23:41;;;;;;;5.65;3.70;;;;;;;-0.89;43.39;101516.82;1824879;78;21457;-73
2022/03/10 10:26:11;;;;;;;6.87;4.60;;;;;;;-0.72;43.66;101509.09;1824913;78;21151;-73
2022/03/10 10:28:41;;;;;;;6.03;3.95;;;;;;;-0.46;43.60;101498.81;1824789;78;20970;-74
2022/03/10 10:31:11;;;;;;;6.25;4.65;;;;;;;-0.49;43.17;101506.55;1825290;78;20918;-73
2022/03/10 10:33:42;;;;;;;8.43;4.28;;;;;;;-0.52;43.18;101509.55;1824831;78;20979;-75
2022/03/10 10:36:17;;;;;;;4.80;3.75;;;;;;;-0.52;43.77;101509.11;1824905;78;20974;-75
2022/03/10 10:38:48;;;;;;;5.95;4.08;;;;;;;-0.69;43.85;101506.55;1825092;78;21800;-74
2022/03/10 10:41:29;;;;;;;4.22;3.62;;;;;;;-0.76;43.98;101503.51;1824814;78;20907;-74
2022/03/10 10:44:00;;;;;;;5.80;4.00;;;;;;;-0.74;44.51;101500.95;1824907;78;21422;-73
2022/03/10 10:46:38;;;;;;;5.25;4.30;;;;;;;-0.78;44.64;101491.50;1824733;78;20939;-74
2022/03/10 10:49:18;;;;;;;6.15;3.85;;;;;;;-1.03;45.05;101494.48;1824722;78;20887;-74
2022/03/10 10:51:49;;;;;;;4.90;3.55;;;;;;;-1.35;45.90;101503.83;1824546;78;21406;-74
2022/03/10 10:54:24;;;;;;;4.97;4.00;;;;;;;-1.68;46.62;101488.69;1824796;78;20871;-74
2022/03/10 10:57:07;;;;;;;6.03;4.15;;;;;;;-1.84;47.63;101487.34;1824363;78;21334;-74
2022/03/10 10:59:41;;;;;;;6.35;4.28;;;;;;;-1.99;47.91;101497.11;1824794;78;20883;-74
2022/03/10 11:02:20;;;;;;;7.00;3.80;;;;;;;-1.88;48.13;101489.88;1825092;78;20946;-73
2022/03/10 11:04:50;;;;;;;6.87;3.65;;;;;;;-1.80;47.78;101502.80;1824939;78;21150;-74
2022/03/10 11:07:19;;;;;;;4.60;3.75;;;;;;;-1.81;47.54;101495.91;1824818;78;20906;-73
2022/03/10 11:09:48;;;;;;;5.78;3.70;;;;;;;-1.76;48.07;101499.36;1824878;78;21425;-74
2022/03/10 11:12:18;;;;;;;4.72;3.37;;;;;;;-1.55;47.99;101496.04;1824810;78;20855;-74
2022/03/10 11:14:46;;;;;;;3.37;2.95;;;;;;;-1.43;47.62;101499.08;1825130;78;20887;-74
2022/03/10 11:17:14;;;;;;;4.62;3.70;;;;;;;-1.48;47.93;101505.49;1824836;78;21766;-74
2022/03/10 11:19:47;;;;;;;6.37;4.37;;;;;;;-1.57;47.56;101511.03;1824490;78;20931;-74
2022/03/10 11:22:43;;;;;;;3.95;3.50;;;;;;;-1.77;47.76;101500.22;1824757;78;20959;-74
2022/03/10 11:25:45;;;;;;;6.78;4.33;;;;;;;-1.81;48.00;101501.05;1824853;78;20887;-74
2022/03/10 11:28:30;;;;;;;5.17;4.08;;;;;;;-1.80;48.02;101490.34;1824710;78;20832;-73
2022/03/10 11:31:02;;;;;;;5.97;3.75;;;;;;;-2.09;49.32;101495.77;1824881;78;20986;-74
2022/03/10 11:33:34;;;;;;;8.73;5.37;;;;;;;-2.13;49.83;101504.31;1824730;78;20951;-73
2022/03/10 11:36:27;;;;;;;9.15;3.62;;;;;;;-2.29;49.79;101497.33;1824899;78;20910;-73